Terminal Aerodrome Forecast
Issued by NWS Glasgow, MT

Home | Current Version | Previous Version | Text Only | Print | Product List | Glossary On
Versions: 1 2 3 4 5 6 7 8 9 10 11 12 13 14 15 16
000
FTUS45 KGGW 202300
TAFGGW
TAF
KGGW 202320Z 2100/2124 VRB04KT P6SM SCT150
     FM210600 VRB04KT 6SM BR BKN160
     FM211200 12007KT 6SM -FZRA BKN080
     FM211800 VRB06KT 6SM -RA FEW010 BKN070=

USA.gov is the U.S. government's official web portal to all federal, state and local government web resources and services.